METAR Data
IDs: Format: Raw Decoded Include TAF

Data at: 2013 UTC 14 Dec 2018

KTKI 141953Z 34016G27KT 10SM -RA OVC011 07/06 A2996 RMK AO2 PK WND 34030/1940 RAB1859E11B26 SLP155 P0001 T00720056
KTKI 141853Z 34019G31KT 10SM OVC012 08/06 A2994 RMK AO2 PK WND 34031/1848 RAB1754E11 SLP149 P0000 T00780061
KTKI 141753Z 34017KT 10SM BKN013 OVC017 07/06 A2996 RMK AO2 RAE49 SLP156 P0001 60011 T00670056 10067 20061 50004
KTKI 141653Z 34017G24KT 10SM -RA OVC013 06/05 A2998 RMK AO2 PK WND 34027/1618 SLP161 P0005 T00610050
KTKI 141553Z 34016G24KT 10SM -RA OVC013 06/05 A2996 RMK AO2 RAB1458 SLP157 P0005 T00610050
KTKI 141453Z 35014G24KT 10SM OVC013 07/04 A2995 RMK AO2 PK WND 36026/1355 SLP151 60000 T00670044 53026
KTKI 141353Z 35018G24KT 10SM OVC012 06/04 A2992 RMK AO2 PK WND 34026/1304 SLP143 T00610044
KTKI 141253Z 34017G22KT 10SM OVC010 06/05 A2989 RMK AO2 RAE1159 SLP130 P0000 T00610050
KTKI 141244Z 34016KT 10SM OVC010 06/05 A2988 RMK AO2 RAE1159 P0000 T00610050
KTKI 141153Z 35015G22KT 9SM -RA OVC009 07/06 A2987 RMK AO2 RAB03 CIG 007V011 SLP124 P0000 60000 70050 T00670056 10072 20067 53016
KTKI 141123Z AUTO 34016KT 5SM -RA BR OVC008 07/06 A2985 RMK AO2 RAB03 CIG 007V011 P0000 T00670056
KTKI 141053Z AUTO 35019G23KT 10SM OVC010 07/06 A2985 RMK AO2 SLP117 T00720056
KTKI 141000Z AUTO 35014G21KT 10SM OVC011 07/06 A2983 RMK AO2 CIG 008V015 T00720056
KTKI 140953Z AUTO 35014KT 10SM BKN009 OVC014 07/06 A2983 RMK AO2 CIG 007V011 SLP110 T00720056
KTKI 140922Z AUTO 35013G22KT 10SM OVC009 07/06 A2983 RMK AO2 CIG 007V014 T00720061
KTKI 140905Z AUTO 35014G23KT 10SM OVC011 07/06 A2982 RMK AO2 T00720061
KTKI 140853Z AUTO 36017KT 10SM BKN009 OVC013 07/06 A2982 RMK AO2 CIG 007V012 SLP104 T00720061 53006
KTKI 140822Z AUTO 36012KT 10SM OVC009 07/06 A2982 RMK AO2 T00720061
KTKI 140753Z AUTO 36013KT 10SM OVC010 07/06 A2981 RMK AO2 CIG 008V014 SLP101 T00720056
KTKI 140653Z AUTO 36011KT 10SM OVC010 07/06 A2980 RMK AO2 CIG 008V015 SLP098 T00720056
KTKI 140553Z AUTO 36013KT 10SM OVC011 07/06 A2980 RMK AO2 CIG 008V014 SLP098 T00720061 10083 20072 401780072 51014
KTKI 140453Z AUTO 01013KT 10SM OVC013 08/06 A2979 RMK AO2 SLP095 T00780056
KTKI 140353Z AUTO 36018G23KT 10SM OVC011 08/06 A2978 RMK AO2 SLP089 T00780061
KTKI 140253Z 01020G26KT 10SM OVC011 08/06 A2976 RMK AO2 PK WND 01026/0250 SLP083 T00780061 57002
KTKI 140153Z 36009KT 10SM OVC010 08/07 A2976 RMK AO2 SLP084 T00830072
KTKI 140053Z 31007KT 10SM OVC010 08/07 A2977 RMK AO2 SLP086 T00830067
KTKI 140051Z 32005KT 10SM OVC010 08/07 A2977 RMK AO2 PRESRR
KTKI 132353Z 35013KT 10SM OVC009 08/07 A2972 RMK AO2 SLP070 60049 T00830072 10178 20083 51033
KTKI 132253Z 31014KT 10SM BKN006 BKN010 OVC018 09/08 A2970 RMK AO2 LTG DSNT NE RAE41 SLP061 P0012 T00940083
KTKI 132229Z 33015KT 3SM -RA BR BKN006 BKN010 OVC018 10/09 A2967 RMK AO2 LTG DSNT N AND NE CIG 005V009 P0012 T01000094
KTKI 132222Z 31014G20KT 1 3/4SM +RA BR BKN006 BKN017 OVC028 11/10 A2968 RMK AO2 LTG DSNT N AND NE PRESRR P0012 T01060100
KTKI 132153Z 33011KT 4SM VCTS +RA BR BKN006 OVC011 12/12 A2965 RMK AO2 LTG DSNT N AND E TSE02B07E47 SLP044 P0027 T01220117
KTKI 132134Z 31008KT 7SM -TSRA BKN006 BKN012 OVC038 14/14 A2964 RMK AO2 LTG DSNT ALQDS TSE02B07 P0022 T01440139
KTKI 132124Z 28005KT 2 1/2SM +TSRA BR BKN006 BKN012 OVC038 16/16 A2963 RMK AO2 LTG DSNT N AND SE AND NW TSE02B07 P0021 T01560156
KTKI 132115Z 16004KT 1 3/4SM +TSRA BR BKN006 BKN010 OVC036 16/16 A2963 RMK AO2 LTG DSNT N AND SE AND NW TSE02B07 P0017 T01560156
KTKI 132107Z 19008KT 2SM +TSRA BR OVC006 16/16 A2963 RMK AO2 LTG DSNT N AND SE AND NW TSE02B07 P0009 T01560156
KTKI 132102Z 18009KT 3SM VCTS +RA BR OVC008 16/15 A2963 RMK AO2 LTG DSNT ALQDS TSE02 P0004 T01560150
KTKI 132053Z 16010KT 2SM +TSRA BR OVC007 16/16 A2962 RMK AO2 LTG DSNT ALQDS RAB11 TSB44 SLP033 P0008 60010 T01560156 55020
KTKI 132048Z AUTO 14011KT 2 1/2SM TSRA BR OVC007 16/15 A2962 RMK AO2 VIS 3/4V5 LTG DSNT ALQDS RAB11 TSB44 P0007
KTKI 132023Z 14008KT 10SM VCTS -RA OVC007 16/15 A2962 RMK AO2 LTG DSNT S-NW RAB11 P0000 T01610150
KTKI 132015Z 12005KT 10SM -RA OVC007 16/15 A2961 RMK AO2 LTG DSNT S-NW RAB11 P0000 T01610150
KTKI 132001Z 12010G18KT 10SM OVC010 16/15 A2961 RMK AO2 LTG DSNT S-NW T01610150
KTKI 131953Z 12010G18KT 10SM OVC009 16/15 A2961 RMK AO2 LTG DSNT S-NW RAE25 CIG 007V013 SLP028 P0001 T01610150
KTKI 131853Z 13010KT 7SM -RA BKN009 BKN012 OVC042 17/16 A2965 RMK AO2 LTG DSNT SW RAB51 SLP041 P0001 T01720156
KTKI 131753Z 15011KT 10SM BKN009 BKN014 OVC042 17/16 A2968 RMK AO2 CIG 007V012 SLP053 60001 T01720156 10172 20150 58014
KTKI 131653Z 15007KT 9SM OVC005 16/16 A2970 RMK AO2 RAE1556 SLP061 P0000 T01610156
KTKI 131638Z 15007KT 8SM OVC005 16/16 A2970 RMK AO2 RAE1556 P0000 T01610156
KTKI 131605Z 15008KT 7SM OVC004 16/16 A2970 RMK AO2 RAE1556 P0000 T01560156
KTKI 131553Z 15008KT 4SM -RA BR OVC005 16/16 A2971 RMK AO2 RAB18 SLP064 P0000 T01560156
KTKI 131510Z 16007KT 7SM OVC005 16/15 A2972 RMK AO2 T01560150
KTKI 131453Z 17008KT 6SM BR OVC004 16/15 A2972 RMK AO2 RAE30 SLP067 P0000 60001 T01560150 53013
KTKI 131445Z 16009KT 6SM BR OVC005 16/15 A2972 RMK AO2 LTG DSNT N RAE30 P0000 T01560150
KTKI 131421Z 16009KT 7SM -RA OVC003 16/15 A2971 RMK AO2 P0000 T01560150 $
KTKI 131400Z 16007KT 6SM -RA BR OVC005 16/15 A2971 RMK AO2 LTG DSNT NW P0000 T01560150 $
KTKI 131353Z 16008KT 6SM VCTS -RA BR OVC005 15/15 A2971 RMK AO2 LTG DSNT W AND NW RAB48 SLP064 P0001 T01500150 $
KTKI 131342Z 16007KT 7SM VCTS OVC005 15/15 A2971 RMK AO2 LTG DSNT SW-NW T01500150 $
KTKI 131253Z 14010KT 8SM OVC005 15/15 A2969 RMK AO2 SLP056 T01500150 $
KTKI 131245Z 14010KT 8SM OVC005 15/15 A2969 RMK AO2 T01500150 $
KTKI 131153Z 14006KT 5SM BR OVC004 16/16 A2968 RMK AO2 SLP055 60003 70003 T01560156 10161 20156 55017 $
KTKI 131053Z AUTO 16011KT 7SM OVC004 16/16 A2967 RMK AO2 SLP050 T01560156 $
KTKI 130953Z AUTO 16007KT 10SM OVC007 16/16 A2970 RMK AO2 LTG DSNT E RAE23 CIG 005V010 SLP059 P0000 T01610156 $
KTKI 130935Z AUTO 17010KT 10SM BKN009 OVC014 16/16 A2971 RMK AO2 LTG DSNT E RAE23 CIG 007V011 P0000 T01610156 $
KTKI 130907Z AUTO 19009KT 10SM -RA BKN013 OVC020 16/16 A2972 RMK AO2 LTG DSNT E AND SE P0000 T01610156 $
KTKI 130853Z AUTO 18008KT 10SM -RA SCT015 BKN020 OVC100 16/16 A2974 RMK AO2 LTG DSNT E SLP071 P0002 60003 T01610156 58004 $
KTKI 130851Z AUTO 18008KT 10SM -RA SCT017 BKN026 OVC120 16/16 A2974 RMK AO2 LTG DSNT E P0002 $